Time;durP1;ratioP1;P1;durP2;ratioP2;P2;SDS_P1;SDS_P2;PMS_P1;PMS_P2;Temp;Humidity;BMP_temperature;BMP_pressure;BME280_temperature;BME280_humidity;BME280_pressure;Samples;Min_cycle;Max_cycle;Signal;HPM_P1;HPM_P2
2023/09/16 00:00:37;;;;;;;1999.90;999.90;;;14.70;99.90;;;;;;5048050;28;20914;-72
2023/09/16 00:03:04;;;;;;;1999.90;999.90;;;14.70;99.90;;;;;;5048760;28;20429;-71
2023/09/16 00:05:32;;;;;;;1999.90;999.90;;;14.80;99.90;;;;;;5047603;28;20429;-72
2023/09/16 00:08:00;;;;;;;1999.90;999.90;;;14.70;99.90;;;;;;5049148;28;20437;-72
2023/09/16 00:10:26;;;;;;;1999.90;999.90;;;14.70;99.90;;;;;;5048432;28;20433;-72
2023/09/16 00:12:53;;;;;;;1999.90;999.90;;;15.20;99.90;;;;;;5047114;28;20826;-72
2023/09/16 00:15:21;;;;;;;1999.90;999.90;;;14.60;99.90;;;;;;5044877;28;20436;-71
2023/09/16 00:17:48;;;;;;;1999.90;999.90;;;14.60;99.90;;;;;;5049504;28;20486;-73
2023/09/16 00:20:15;;;;;;;1999.90;999.90;;;14.60;99.90;;;;;;5049361;28;20433;-72
2023/09/16 00:22:42;;;;;;;1999.90;999.90;;;14.60;99.90;;;;;;5048152;28;20437;-72
2023/09/16 00:25:11;;;;;;;1999.90;999.90;;;14.50;99.90;;;;;;5048451;28;20437;-74
2023/09/16 00:27:39;;;;;;;1999.90;999.90;;;14.40;99.90;;;;;;5047920;28;20440;-71
2023/09/16 00:30:07;;;;;;;1999.90;999.90;;;14.30;99.90;;;;;;5048757;28;20425;-74
2023/09/16 00:32:34;;;;;;;1999.90;999.90;;;14.30;99.90;;;;;;5048055;28;20444;-74
2023/09/16 00:35:01;;;;;;;1999.90;999.90;;;14.20;99.90;;;;;;5048931;28;20459;-74
2023/09/16 00:37:28;;;;;;;1999.90;999.90;;;14.20;99.90;;;;;;5047692;28;20524;-74
2023/09/16 00:39:55;;;;;;;1999.90;999.90;;;14.20;99.90;;;;;;5047913;28;20436;-74
2023/09/16 00:42:23;;;;;;;1999.90;999.90;;;14.20;99.90;;;;;;5047193;28;20438;-71
2023/09/16 00:44:50;;;;;;;1999.90;999.90;;;14.20;99.90;;;;;;5041027;28;20425;-72
2023/09/16 00:47:17;;;;;;;1999.90;999.90;;;14.20;99.90;;;;;;5048927;28;21141;-71
2023/09/16 00:49:44;;;;;;;1999.90;999.90;;;14.10;99.90;;;;;;5049135;28;20437;-71
2023/09/16 00:52:11;;;;;;;1999.90;999.90;;;14.30;99.90;;;;;;5047612;28;20812;-71
2023/09/16 00:54:38;;;;;;;1999.90;999.90;;;14.10;99.90;;;;;;5038011;28;20436;-69
2023/09/16 00:57:11;;;;;;;1999.90;999.90;;;14.00;99.90;;;;;;5045300;28;20911;-72
2023/09/16 00:59:39;;;;;;;1999.90;999.90;;;13.90;99.90;;;;;;5048780;28;20538;-71
2023/09/16 01:02:09;;;;;;;1999.90;999.90;;;14.00;99.90;;;;;;5048634;28;20433;-72
2023/09/16 01:04:37;;;;;;;1999.90;999.90;;;14.00;99.90;;;;;;5048020;28;20437;-71
2023/09/16 01:07:05;;;;;;;1999.90;999.90;;;13.90;99.90;;;;;;5045773;28;20429;-72
2023/09/16 01:09:32;;;;;;;1999.90;999.90;;;13.90;99.90;;;;;;5042313;28;20437;-72
2023/09/16 01:11:59;;;;;;;1999.90;999.90;;;13.90;99.90;;;;;;5042004;28;20440;-70
2023/09/16 01:14:26;;;;;;;1999.90;999.90;;;13.80;99.90;;;;;;5047593;28;20429;-72
2023/09/16 01:17:00;;;;;;;1999.90;999.90;;;13.80;99.90;;;;;;5048662;28;20803;-72
2023/09/16 01:19:37;;;;;;;1999.90;999.90;;;13.80;99.90;;;;;;5047710;28;20437;-71
2023/09/16 01:22:06;;;;;;;1999.90;999.90;;;13.80;99.90;;;;;;5040497;28;20435;-71
2023/09/16 01:24:33;;;;;;;1999.90;999.90;;;13.80;99.90;;;;;;5043316;28;20834;-72
2023/09/16 01:27:03;;;;;;;1999.90;999.90;;;13.80;99.90;;;;;;5047574;28;20512;-72
2023/09/16 01:29:30;;;;;;;1999.90;999.90;;;13.80;99.90;;;;;;5048330;28;20436;-71
2023/09/16 01:32:04;;;;;;;1999.90;999.90;;;13.80;99.90;;;;;;5047579;28;20436;-74
2023/09/16 01:34:37;;;;;;;1999.90;999.90;;;13.70;99.90;;;;;;5046434;28;20444;-74
2023/09/16 01:37:07;;;;;;;1999.90;999.90;;;13.70;99.90;;;;;;5033755;28;20427;-76
2023/09/16 01:39:35;;;;;;;1999.90;999.90;;;13.70;99.90;;;;;;5046520;28;20524;-74
2023/09/16 01:42:04;;;;;;;1999.90;999.90;;;13.70;99.90;;;;;;5043568;28;21114;-74
2023/09/16 01:44:31;;;;;;;1999.90;999.90;;;13.80;99.90;;;;;;5052009;28;20935;-74
2023/09/16 01:46:58;;;;;;;1999.90;999.90;;;13.80;99.90;;;;;;5052159;28;20460;-74
2023/09/16 01:49:25;;;;;;;1999.90;999.90;;;13.70;99.90;;;;;;5050972;28;20429;-74
2023/09/16 01:51:51;;;;;;;1999.90;999.90;;;13.70;99.90;;;;;;5049980;28;20443;-71
2023/09/16 01:54:18;;;;;;;1999.90;999.90;;;13.70;99.90;;;;;;5052402;28;20440;-71
2023/09/16 01:56:47;;;;;;;1999.90;999.90;;;13.80;99.90;;;;;;5051843;28;20429;-71
2023/09/16 01:59:15;;;;;;;1999.90;999.90;;;13.80;99.90;;;;;;5052037;28;20441;-71
2023/09/16 02:01:42;;;;;;;1999.90;999.90;;;13.80;99.90;;;;;;5050420;28;20432;-74
2023/09/16 02:04:09;;;;;;;1999.90;999.90;;;13.70;99.90;;;;;;5049270;28;20509;-74
2023/09/16 02:06:36;;;;;;;1999.90;999.90;;;13.70;99.90;;;;;;5043268;28;20930;-75
2023/09/16 02:09:03;;;;;;;1999.90;999.90;;;13.60;99.90;;;;;;5050723;28;20425;-74
2023/09/16 02:11:30;;;;;;;1999.90;999.90;;;13.40;99.90;;;;;;5050203;28;20433;-73
2023/09/16 02:13:58;;;;;;;1999.90;999.90;;;13.20;99.90;;;;;;5051319;28;20436;-74
2023/09/16 02:16:26;;;;;;;1999.90;999.90;;;13.20;99.90;;;;;;5050857;28;20433;-74
2023/09/16 02:18:53;;;;;;;1999.90;999.90;;;13.20;99.90;;;;;;5043687;28;20430;-74
2023/09/16 02:21:21;;;;;;;1999.90;999.90;;;13.20;99.90;;;;;;5044236;28;20440;-73
2023/09/16 02:23:48;;;;;;;1999.90;999.90;;;13.20;99.90;;;;;;5050413;28;20437;-74
2023/09/16 02:26:15;;;;;;;1999.90;999.90;;;13.20;99.90;;;;;;5050885;28;20795;-77
2023/09/16 02:28:41;;;;;;;1999.90;999.90;;;13.40;99.90;;;;;;5044267;28;20937;-74
2023/09/16 02:31:09;;;;;;;1999.90;999.90;;;13.20;99.90;;;;;;5049551;28;20433;-73
2023/09/16 02:33:37;;;;;;;1999.90;999.90;;;13.30;99.90;;;;;;5050035;28;20463;-74
2023/09/16 02:36:05;;;;;;;1999.90;999.90;;;13.30;99.90;;;;;;5051271;28;20443;-73
2023/09/16 02:38:32;;;;;;;1999.90;999.90;;;13.20;99.90;;;;;;5051061;28;20448;-73
2023/09/16 02:40:58;;;;;;;1999.90;999.90;;;13.10;99.90;;;;;;5050289;28;20930;-71
2023/09/16 02:43:25;;;;;;;1999.90;999.90;;;13.00;99.90;;;;;;5050101;28;20440;-73
2023/09/16 02:45:52;;;;;;;1999.90;999.90;;;13.00;99.90;;;;;;5050420;28;20440;-74
2023/09/16 02:48:19;;;;;;;1999.90;999.90;;;13.10;99.90;;;;;;5048245;28;20440;-74
2023/09/16 02:50:48;;;;;;;1999.90;999.90;;;13.10;99.90;;;;;;5046330;28;20452;-73
2023/09/16 02:53:14;;;;;;;1999.90;999.90;;;13.00;99.90;;;;;;5049808;28;20479;-71
2023/09/16 02:55:41;;;;;;;1999.90;999.90;;;13.10;99.90;;;;;;5049943;28;20441;-71
2023/09/16 02:58:08;;;;;;;1999.90;999.90;;;13.10;99.90;;;;;;5051057;28;20433;-73
2023/09/16 03:00:35;;;;;;;1999.90;999.90;;;13.10;99.90;;;;;;5050753;28;20510;-76
2023/09/16 03:03:02;;;;;;;1999.90;999.90;;;13.00;99.90;;;;;;5046207;28;20436;-73
2023/09/16 03:05:30;;;;;;;1999.90;999.90;;;12.90;99.90;;;;;;5042360;28;20427;-73
2023/09/16 03:07:58;;;;;;;1999.90;999.90;;;13.00;99.90;;;;;;5050617;28;20441;-73
2023/09/16 03:10:25;;;;;;;1999.90;999.90;;;12.90;99.90;;;;;;5050658;28;20440;-71
2023/09/16 03:12:52;;;;;;;1999.90;999.90;;;12.80;99.90;;;;;;5050464;28;20470;-74
2023/09/16 03:15:18;;;;;;;1999.90;999.90;;;12.80;99.90;;;;;;5049744;28;20429;-73
2023/09/16 03:17:45;;;;;;;1999.90;999.90;;;12.80;99.90;;;;;;5048217;28;21993;-70
2023/09/16 03:20:12;;;;;;;1999.90;999.90;;;12.80;99.90;;;;;;5049131;28;20437;-73
2023/09/16 03:22:38;;;;;;;1999.90;999.90;;;12.80;99.90;;;;;;5049267;28;20429;-72
2023/09/16 03:25:07;;;;;;;1999.90;999.90;;;12.70;99.90;;;;;;5049654;28;20436;-70
2023/09/16 03:27:34;;;;;;;1999.90;999.90;;;12.70;99.90;;;;;;5050116;28;20432;-73
2023/09/16 03:30:01;;;;;;;1999.90;999.90;;;12.70;99.90;;;;;;5044193;28;20429;-73
2023/09/16 03:32:29;;;;;;;1999.90;999.90;;;12.90;99.90;;;;;;5049309;28;20497;-72
2023/09/16 03:34:56;;;;;;;1999.90;999.90;;;12.80;99.90;;;;;;5043922;28;20433;-73
2023/09/16 03:37:22;;;;;;;1999.90;999.90;;;12.90;99.90;;;;;;5049219;28;20947;-74
2023/09/16 03:39:49;;;;;;;1999.90;999.90;;;12.90;99.90;;;;;;5050153;28;20481;-73
2023/09/16 03:42:17;;;;;;;1999.90;999.90;;;13.00;99.90;;;;;;5050003;28;20419;-73
2023/09/16 03:44:44;;;;;;;1999.90;999.90;;;13.10;99.90;;;;;;5049855;28;20533;-73
2023/09/16 03:47:11;;;;;;;1999.90;999.90;;;13.20;99.90;;;;;;5044997;28;20431;-72
2023/09/16 03:49:37;;;;;;;1999.90;999.90;;;13.00;99.90;;;;;;5040055;28;20930;-73
2023/09/16 03:52:05;;;;;;;1999.90;999.90;;;12.80;99.90;;;;;;5043816;28;20433;-73
2023/09/16 03:54:32;;;;;;;1999.90;999.90;;;12.90;99.90;;;;;;5049799;28;20520;-73
2023/09/16 03:56:59;;;;;;;1999.90;999.90;;;12.90;99.90;;;;;;5049501;28;20441;-73
2023/09/16 03:59:27;;;;;;;1999.90;999.90;;;12.80;99.90;;;;;;5049505;28;20425;-73
2023/09/16 04:01:53;;;;;;;1999.90;999.90;;;12.60;99.90;;;;;;5047994;28;20436;-73
2023/09/16 04:04:20;;;;;;;1999.90;999.90;;;12.50;99.90;;;;;;5048823;28;20436;-75
2023/09/16 04:06:47;;;;;;;1999.90;999.90;;;12.40;99.90;;;;;;5049686;28;20436;-74
2023/09/16 04:09:16;;;;;;;1999.90;999.90;;;12.40;99.90;;;;;;5049081;28;20432;-73
2023/09/16 04:11:42;;;;;;;1999.90;999.90;;;12.40;99.90;;;;;;5049207;28;20455;-74
2023/09/16 04:14:09;;;;;;;1999.90;999.90;;;12.40;99.90;;;;;;5049272;28;20433;-72
2023/09/16 04:16:39;;;;;;;1999.90;999.90;;;12.60;99.90;;;;;;5048355;28;20428;-73
2023/09/16 04:19:05;;;;;;;1999.90;999.90;;;12.20;99.90;;;;;;5046004;28;20434;-73
2023/09/16 04:21:32;;;;;;;1999.90;999.90;;;12.10;99.90;;;;;;5047190;28;20440;-74
2023/09/16 04:23:59;;;;;;;1999.90;999.90;;;12.20;99.90;;;;;;5048572;28;20440;-74
2023/09/16 04:26:26;;;;;;;1999.90;999.90;;;12.10;99.90;;;;;;5044824;28;20437;-74
2023/09/16 04:28:52;;;;;;;1999.90;999.90;;;12.00;99.90;;;;;;5047071;28;20440;-74
2023/09/16 04:31:19;;;;;;;1999.90;999.90;;;12.10;99.90;;;;;;5047267;28;20819;-73
2023/09/16 04:33:48;;;;;;;1999.90;999.90;;;12.20;99.90;;;;;;5048425;28;20425;-75
2023/09/16 04:36:15;;;;;;;1999.90;999.90;;;12.20;99.90;;;;;;5048975;28;20543;-73
2023/09/16 04:38:41;;;;;;;1999.90;999.90;;;12.20;99.90;;;;;;5048349;28;20819;-74
2023/09/16 04:41:08;;;;;;;1999.90;999.90;;;12.50;99.90;;;;;;5038282;28;20438;-77
2023/09/16 04:43:35;;;;;;;1999.90;999.90;;;11.90;99.90;;;;;;5044258;28;20432;-74
2023/09/16 04:46:02;;;;;;;1999.90;999.90;;;11.80;99.90;;;;;;5047589;28;20436;-70
2023/09/16 04:48:30;;;;;;;1999.90;999.90;;;11.90;99.90;;;;;;5048298;28;20459;-73
2023/09/16 04:50:58;;;;;;;1999.90;999.90;;;12.10;99.90;;;;;;5048856;28;20433;-73
2023/09/16 04:53:25;;;;;;;1999.90;999.90;;;12.20;99.90;;;;;;5048315;28;20426;-73
2023/09/16 04:56:00;;;;;;;1999.90;999.90;;;12.30;99.90;;;;;;5046708;28;20479;-72
2023/09/16 04:58:27;;;;;;;1999.90;999.90;;;12.40;99.90;;;;;;5046949;28;20425;-73
2023/09/16 05:00:54;;;;;;;1999.90;999.90;;;12.50;99.90;;;;;;5048262;28;20487;-73
2023/09/16 05:03:20;;;;;;;1999.90;999.90;;;12.50;99.90;;;;;;5047843;28;20512;-72
2023/09/16 05:05:47;;;;;;;1999.90;999.90;;;12.30;99.90;;;;;;5047525;28;20437;-74
2023/09/16 05:08:15;;;;;;;1999.90;999.90;;;12.40;99.90;;;;;;5047612;28;20949;-75
2023/09/16 05:10:42;;;;;;;1999.90;999.90;;;12.30;99.90;;;;;;5047175;28;20437;-74
2023/09/16 05:13:09;;;;;;;1999.90;999.90;;;12.40;99.90;;;;;;5045018;28;20425;-72
2023/09/16 05:15:35;;;;;;;1999.90;999.90;;;12.40;99.90;;;;;;5049284;28;20430;-73
2023/09/16 05:18:02;;;;;;;1999.90;999.90;;;12.40;99.90;;;;;;5052672;28;20425;-74
2023/09/16 05:20:29;;;;;;;1999.90;999.90;;;12.70;99.90;;;;;;5052792;28;20440;-74
2023/09/16 05:22:56;;;;;;;1999.90;999.90;;;12.50;99.90;;;;;;5051562;28;20506;-74
2023/09/16 05:25:24;;;;;;;1999.90;999.90;;;12.30;99.90;;;;;;5047082;28;20806;-74
2023/09/16 05:27:51;;;;;;;1999.90;999.90;;;12.40;99.90;;;;;;5047528;28;20437;-77
2023/09/16 05:30:17;;;;;;;1999.90;999.90;;;12.50;99.90;;;;;;5052677;28;20429;-74
2023/09/16 05:32:44;;;;;;;1999.90;999.90;;;12.50;99.90;;;;;;5051691;28;20429;-72
2023/09/16 05:35:11;;;;;;;1999.90;999.90;;;12.50;99.90;;;;;;5052204;28;20429;-72
2023/09/16 05:37:37;;;;;;;1999.90;999.90;;;12.60;99.90;;;;;;5051848;28;20436;-72
2023/09/16 05:40:05;;;;;;;1999.90;999.90;;;12.80;99.90;;;;;;5047453;28;20429;-72
2023/09/16 05:42:34;;;;;;;1999.90;999.90;;;12.90;99.90;;;;;;5047078;28;20433;-71
2023/09/16 05:45:03;;;;;;;1999.90;999.90;;;13.00;99.90;;;;;;5049242;28;21139;-72
2023/09/16 05:47:29;;;;;;;1999.90;999.90;;;13.30;99.90;;;;;;5049324;28;20429;-72
2023/09/16 05:49:57;;;;;;;1999.90;999.90;;;12.90;99.90;;;;;;5047110;28;20433;-74
2023/09/16 05:52:24;;;;;;;1999.90;999.90;;;13.00;99.90;;;;;;5052356;28;20429;-74
2023/09/16 05:54:51;;;;;;;1999.90;999.90;;;13.10;99.90;;;;;;5052664;28;20409;-72
2023/09/16 05:57:18;;;;;;;1999.90;999.90;;;13.40;99.90;;;;;;5044256;28;20425;-74
2023/09/16 05:59:46;;;;;;;1999.90;999.90;;;13.50;99.90;;;;;;5049877;28;20435;-74
2023/09/16 06:02:12;;;;;;;1999.90;999.90;;;13.40;99.90;;;;;;5049672;28;20777;-76
2023/09/16 06:04:39;;;;;;;1999.90;999.90;;;13.50;99.90;;;;;;5043325;28;20434;-74
2023/09/16 06:07:06;;;;;;;1999.90;999.90;;;13.60;99.90;;;;;;5042285;28;20409;-74
2023/09/16 06:09:32;;;;;;;1999.90;999.90;;;13.70;99.90;;;;;;5042534;28;20419;-72
2023/09/16 06:11:59;;;;;;;1999.90;999.90;;;13.80;99.90;;;;;;5043238;28;20509;-75
2023/09/16 06:14:26;;;;;;;1999.90;999.90;;;13.80;99.90;;;;;;5048485;28;20444;-73
2023/09/16 06:16:54;;;;;;;1999.90;999.90;;;13.90;99.90;;;;;;5052557;28;20776;-69
2023/09/16 06:19:21;;;;;;;1999.90;999.90;;;14.00;99.90;;;;;;5044610;28;20434;-71
2023/09/16 06:21:48;;;;;;;1999.90;999.90;;;14.20;99.90;;;;;;5044279;28;20409;-72
2023/09/16 06:24:15;;;;;;;1999.90;999.90;;;14.30;99.90;;;;;;5041277;28;20955;-71
2023/09/16 06:26:42;;;;;;;1999.90;999.90;;;14.40;99.90;;;;;;5044253;28;20437;-71
2023/09/16 06:29:09;;;;;;;1999.90;999.90;;;14.50;99.90;;;;;;5041690;28;20413;-69
2023/09/16 06:31:35;;;;;;;1999.90;999.90;;;14.60;99.90;;;;;;5052268;28;20417;-72
2023/09/16 06:34:05;;;;;;;1999.90;999.90;;;14.80;99.90;;;;;;5047024;28;20414;-72
2023/09/16 06:36:32;;;;;;;1999.90;999.90;;;15.00;99.90;;;;;;5042241;28;20415;-71
2023/09/16 06:38:59;;;;;;;1999.90;999.90;;;15.00;99.90;;;;;;5043963;28;20433;-71
2023/09/16 06:41:26;;;;;;;1999.90;999.90;;;15.10;99.90;;;;;;5041931;28;20419;-68
2023/09/16 06:43:53;;;;;;;1999.90;999.90;;;15.30;99.90;;;;;;5048516;28;20452;-72
2023/09/16 06:46:20;;;;;;;1999.90;999.90;;;15.40;99.90;;;;;;5045158;28;20505;-71
2023/09/16 06:48:46;;;;;;;1999.90;999.90;;;15.50;99.90;;;;;;5044085;28;20408;-69
2023/09/16 06:51:15;;;;;;;1999.90;999.90;;;15.70;99.90;;;;;;5041897;28;20413;-70
2023/09/16 06:53:41;;;;;;;1999.90;999.90;;;15.80;99.90;;;;;;5043708;28;20421;-72
2023/09/16 06:56:09;;;;;;;1999.90;999.90;;;16.00;99.90;;;;;;5043023;28;20493;-70
2023/09/16 06:58:36;;;;;;;1999.90;999.90;;;16.20;99.90;;;;;;5049681;28;20435;-71
2023/09/16 07:01:08;;;;;;;1999.90;999.90;;;16.30;99.90;;;;;;5047146;28;20413;-70
2023/09/16 07:03:35;;;;;;;1999.90;999.90;;;16.20;99.90;;;;;;5043011;28;20897;-72
2023/09/16 07:06:02;;;;;;;1999.90;999.90;;;16.20;99.90;;;;;;5044321;28;20421;-72
2023/09/16 07:08:30;;;;;;;1999.90;999.90;;;16.30;99.90;;;;;;5049587;28;20429;-73
2023/09/16 07:10:57;;;;;;;1999.90;999.90;;;16.50;99.90;;;;;;5051301;28;20416;-71
2023/09/16 07:13:24;;;;;;;1999.90;999.90;;;16.60;99.90;;;;;;5045102;28;20413;-72
2023/09/16 07:15:54;;;;;;;1999.90;999.90;;;16.80;99.90;;;;;;5049241;28;20437;-73
2023/09/16 07:18:20;;;;;;;1999.90;999.90;;;17.10;99.90;;;;;;5050199;28;20432;-72
2023/09/16 07:20:48;;;;;;;1999.90;999.90;;;17.20;99.90;;;;;;5046133;28;20456;-72
2023/09/16 07:23:15;;;;;;;1999.90;999.90;;;17.20;99.90;;;;;;5043706;28;20437;-72
2023/09/16 07:25:43;;;;;;;1999.90;999.90;;;17.40;99.90;;;;;;5043815;28;20580;-71
2023/09/16 07:28:10;;;;;;;1999.90;999.90;;;17.70;99.90;;;;;;5049515;28;20425;-72
2023/09/16 07:30:37;;;;;;;1999.90;999.90;;;17.90;99.90;;;;;;5046683;28;20475;-73
2023/09/16 07:33:04;;;;;;;1999.90;999.90;;;18.00;99.90;;;;;;5049290;28;20439;-72
2023/09/16 07:35:31;;;;;;;1999.90;999.90;;;18.10;99.90;;;;;;5049207;28;20424;-72
2023/09/16 07:37:58;;;;;;;1999.90;999.90;;;18.50;99.90;;;;;;5045248;28;20436;-71
2023/09/16 07:40:26;;;;;;;1999.90;999.90;;;18.80;99.90;;;;;;5042632;28;20436;-73
2023/09/16 07:42:54;;;;;;;1999.90;999.90;;;18.90;99.90;;;;;;5045901;28;20538;-73
2023/09/16 07:45:20;;;;;;;1999.90;999.90;;;18.80;99.90;;;;;;5043212;28;20939;-72
2023/09/16 07:47:47;;;;;;;1999.90;999.90;;;18.70;99.90;;;;;;5044895;28;20444;-72
2023/09/16 07:50:14;;;;;;;1999.90;999.90;;;18.80;99.90;;;;;;5048743;28;20468;-71
2023/09/16 07:52:42;;;;;;;1999.90;999.90;;;18.90;99.90;;;;;;5049061;28;20933;-73
2023/09/16 07:55:09;;;;;;;1999.90;999.90;;;18.90;99.90;;;;;;5049617;28;21014;-74
2023/09/16 07:57:36;;;;;;;1999.90;999.90;;;19.00;99.90;;;;;;5048360;28;20433;-73
2023/09/16 08:00:07;;;;;;;1999.90;999.90;;;19.20;99.90;;;;;;5046176;28;20510;-72
2023/09/16 08:02:34;;;;;;;1999.90;999.90;;;19.40;99.90;;;;;;5047747;28;20926;-73
2023/09/16 08:05:00;;;;;;;1999.90;999.90;;;19.40;99.90;;;;;;5051036;28;20436;-71
2023/09/16 08:07:28;;;;;;;1999.90;999.90;;;19.60;99.90;;;;;;5048355;28;20927;-73
2023/09/16 08:09:55;;;;;;;1999.90;999.90;;;20.20;99.90;;;;;;5050879;28;20907;-70
2023/09/16 08:12:23;;;;;;;1999.90;999.90;;;20.20;99.90;;;;;;5049914;28;20432;-71
2023/09/16 08:14:50;;;;;;;1999.90;999.90;;;20.30;99.90;;;;;;5050815;28;20471;-73
2023/09/16 08:17:18;;;;;;;1999.90;999.90;;;20.40;99.90;;;;;;5050684;28;20910;-71
2023/09/16 08:19:45;;;;;;;1999.90;999.90;;;20.50;99.90;;;;;;5050605;28;20437;-71
2023/09/16 08:22:11;;;;;;;1999.90;999.90;;;20.40;99.90;;;;;;5050622;28;20421;-70
2023/09/16 08:24:38;;;;;;;1999.90;999.90;;;20.50;99.90;;;;;;5050445;28;20926;-72
2023/09/16 08:27:05;;;;;;;1999.90;999.90;;;20.50;99.90;;;;;;5049767;28;20444;-71
2023/09/16 08:29:32;;;;;;;1999.90;999.90;;;20.60;99.90;;;;;;5050738;28;20421;-70
2023/09/16 08:31:59;;;;;;;1999.90;999.90;;;21.00;99.90;;;;;;5050482;28;20436;-71
2023/09/16 08:34:27;;;;;;;1999.90;999.90;;;20.90;99.90;;;;;;5050212;28;20998;-70
2023/09/16 08:36:53;;;;;;;1999.90;999.90;;;21.00;99.90;;;;;;5050349;28;20420;-71
2023/09/16 08:39:20;;;;;;;1999.90;999.90;;;21.10;99.90;;;;;;5050334;28;20433;-71
2023/09/16 08:41:52;;;;;;;1999.90;999.90;;;21.40;99.90;;;;;;5042470;28;20923;-70
2023/09/16 08:44:23;;;;;;;1999.90;999.90;;;21.50;99.90;;;;;;5046367;28;20429;-69
2023/09/16 08:46:59;;;;;;;1999.90;999.90;;;21.30;99.90;;;;;;5045581;28;20495;-71
2023/09/16 08:49:31;;;;;;;1999.90;999.90;;;21.30;99.90;;;;;;5043886;28;20439;-71
2023/09/16 08:52:01;;;;;;;1999.90;999.90;;;21.50;99.90;;;;;;5046844;28;20941;-69
2023/09/16 08:54:32;;;;;;;1999.90;999.90;;;21.60;99.90;;;;;;5047008;28;20445;-71
2023/09/16 08:57:00;;;;;;;1999.90;999.90;;;21.80;99.90;;;;;;5044426;28;20440;-70
2023/09/16 08:59:28;;;;;;;1999.90;999.90;;;21.80;99.90;;;;;;5046716;28;20549;-71
2023/09/16 09:01:55;;;;;;;1999.90;999.90;;;21.90;99.90;;;;;;5049784;28;20416;-70
2023/09/16 09:04:22;;;;;;;1999.90;999.90;;;21.90;99.90;;;;;;5049948;28;20782;-72
2023/09/16 09:06:51;;;;;;;1999.90;999.90;;;21.90;99.90;;;;;;5048592;28;20433;-70
2023/09/16 09:09:17;;;;;;;1999.90;999.90;;;21.80;99.90;;;;;;5049934;28;20421;-71
2023/09/16 09:11:44;;;;;;;1999.90;999.90;;;21.70;99.90;;;;;;5049978;28;20417;-70
2023/09/16 09:14:14;;;;;;;1999.90;999.90;;;22.00;99.90;;;;;;5044988;28;20452;-70
2023/09/16 09:16:43;;;;;;;1999.90;999.90;;;22.10;99.90;;;;;;5046956;28;20850;-71
2023/09/16 09:19:12;;;;;;;1999.90;999.90;;;22.10;99.90;;;;;;5048368;28;20981;-69
2023/09/16 09:21:40;;;;;;;1999.90;999.90;;;22.10;99.90;;;;;;5047556;28;20436;-69
2023/09/16 09:24:08;;;;;;;1999.90;999.90;;;22.10;99.90;;;;;;5048520;28;20440;-69
2023/09/16 09:26:35;;;;;;;1999.90;999.90;;;22.60;99.90;;;;;;5048624;28;20441;-70
2023/09/16 09:29:02;;;;;;;1999.90;999.90;;;22.40;99.90;;;;;;5045831;28;20931;-70
2023/09/16 09:31:31;;;;;;;1999.90;999.90;;;22.20;99.90;;;;;;5047075;28;20433;-71
2023/09/16 09:33:58;;;;;;;1999.90;999.90;;;22.40;99.90;;;;;;5048032;28;20429;-70
2023/09/16 09:36:27;;;;;;;1999.90;999.90;;;22.30;99.90;;;;;;5047603;28;20799;-71
2023/09/16 09:38:57;;;;;;;1999.90;999.90;;;22.60;99.90;;;;;;5047730;28;20964;-68
2023/09/16 09:41:25;;;;;;;1999.90;999.90;;;22.30;99.90;;;;;;5046629;28;20436;-69
2023/09/16 09:43:53;;;;;;;1999.90;999.90;;;22.40;99.90;;;;;;5045752;28;20919;-69
2023/09/16 09:46:22;;;;;;;1999.90;999.90;;;22.50;99.90;;;;;;5047974;28;20512;-70
2023/09/16 09:48:48;;;;;;;1999.90;999.90;;;22.50;99.90;;;;;;5048223;28;20433;-71
2023/09/16 09:51:17;;;;;;;1999.90;999.90;;;22.80;99.90;;;;;;5048119;28;20429;-71
2023/09/16 09:53:46;;;;;;;1999.90;999.90;;;23.00;99.90;;;;;;5048479;28;20535;-68
2023/09/16 09:56:13;;;;;;;1999.90;999.90;;;23.00;99.90;;;;;;5046974;28;20428;-68
2023/09/16 09:58:41;;;;;;;1999.90;999.90;;;23.10;99.90;;;;;;5047552;28;20429;-71
2023/09/16 10:01:08;;;;;;;1999.90;999.90;;;23.20;99.90;;;;;;5046142;28;20437;-70
2023/09/16 10:03:35;;;;;;;1999.90;999.90;;;23.00;99.90;;;;;;5049491;28;20432;-70
2023/09/16 10:06:14;;;;;;;1999.90;999.90;;;22.90;99.90;;;;;;5051996;28;20465;-71
2023/09/16 10:08:41;;;;;;;1999.90;999.90;;;22.80;99.90;;;;;;5051024;28;20440;-70
2023/09/16 10:11:08;;;;;;;1999.90;999.90;;;22.90;99.90;;;;;;5050846;28;20931;-69
2023/09/16 10:13:35;;;;;;;1999.90;999.90;;;23.10;99.90;;;;;;5049168;28;20449;-70
2023/09/16 10:16:05;;;;;;;1999.90;999.90;;;23.30;99.90;;;;;;5049657;28;20443;-69
2023/09/16 10:18:31;;;;;;;1999.90;999.90;;;23.50;99.90;;;;;;5049454;28;20927;-69
2023/09/16 10:20:58;;;;;;;1999.90;999.90;;;23.40;99.90;;;;;;5051544;28;20436;-69
2023/09/16 10:23:26;;;;;;;1999.90;999.90;;;23.30;99.90;;;;;;5050132;28;20419;-71
2023/09/16 10:25:53;;;;;;;1999.90;999.90;;;23.40;99.90;;;;;;5052407;28;20780;-71
2023/09/16 10:28:20;;;;;;;1999.90;999.90;;;23.50;99.90;;;;;;5050038;28;20429;-71
2023/09/16 10:30:49;;;;;;;1999.90;999.90;;;23.70;99.90;;;;;;5048438;28;20440;-70
2023/09/16 10:33:17;;;;;;;1999.90;999.90;;;23.80;99.90;;;;;;5048579;28;20437;-70
2023/09/16 10:35:44;;;;;;;1999.90;999.90;;;23.80;99.90;;;;;;5051544;28;20871;-70
2023/09/16 10:38:12;;;;;;;1999.90;999.90;;;23.80;99.90;;;;;;5052172;28;20429;-71
2023/09/16 10:40:39;;;;;;;1999.90;999.90;;;23.90;99.90;;;;;;5052772;28;20435;-73
2023/09/16 10:43:07;;;;;;;1999.90;999.90;;;24.00;99.90;;;;;;5052518;28;20417;-73
2023/09/16 10:45:34;;;;;;;1999.90;999.90;;;23.90;99.90;;;;;;5050161;28;20456;-72
2023/09/16 10:48:01;;;;;;;1999.90;999.90;;;24.10;99.90;;;;;;5052332;28;20420;-73
2023/09/16 10:50:35;;;;;;;1999.90;999.90;;;24.10;99.90;;;;;;5052404;28;20497;-72
2023/09/16 10:53:05;;;;;;;1999.90;999.90;;;24.10;99.90;;;;;;5052179;28;21005;-70
2023/09/16 10:55:39;;;;;;;1999.90;999.90;;;24.00;99.90;;;;;;5052386;28;20417;-70
2023/09/16 10:58:10;;;;;;;1999.90;999.90;;;24.10;99.90;;;;;;5052074;28;20482;-69
2023/09/16 11:00:41;;;;;;;1999.90;999.90;;;24.20;99.90;;;;;;5049839;28;20421;-69
2023/09/16 11:03:14;;;;;;;1999.90;999.90;;;24.30;99.90;;;;;;5050745;28;20410;-72
2023/09/16 11:05:42;;;;;;;1999.90;999.90;;;24.50;99.90;;;;;;5050895;28;21111;-73
2023/09/16 11:08:09;;;;;;;1999.90;999.90;;;24.70;99.90;;;;;;5051211;28;20405;-71
2023/09/16 11:10:37;;;;;;;1999.90;999.90;;;24.70;99.90;;;;;;5050888;28;20406;-72
2023/09/16 11:13:04;;;;;;;1999.90;999.90;;;24.80;99.90;;;;;;5050603;28;20420;-72
2023/09/16 11:15:32;;;;;;;1999.90;999.90;;;25.00;99.90;;;;;;5049626;28;20437;-72
2023/09/16 11:18:03;;;;;;;1999.90;999.90;;;25.10;99.90;;;;;;5049746;28;20437;-72
2023/09/16 11:20:33;;;;;;;1999.90;999.90;;;25.30;99.90;;;;;;5050512;28;20436;-72
2023/09/16 11:23:02;;;;;;;1999.90;999.90;;;25.20;99.90;;;;;;5049591;28;20433;-73
2023/09/16 11:25:34;;;;;;;1999.90;999.90;;;25.10;99.90;;;;;;5048772;28;20441;-74
2023/09/16 11:28:03;;;;;;;1999.90;999.90;;;25.00;99.90;;;;;;5048064;28;20430;-72
2023/09/16 11:30:32;;;;;;;1999.90;999.90;;;25.10;99.90;;;;;;5047017;28;20429;-70
2023/09/16 11:33:24;;;;;;;1999.90;999.90;;;25.00;99.90;;;;;;5049772;28;20850;-73
2023/09/16 11:36:06;;;;;;;1999.90;999.90;;;25.00;99.90;;;;;;5040475;28;20913;-72
2023/09/16 11:38:34;;;;;;;1999.90;999.90;;;25.30;99.90;;;;;;5047280;28;20888;-74
2023/09/16 11:41:09;;;;;;;1999.90;999.90;;;25.30;99.90;;;;;;5048282;28;20425;-72
2023/09/16 11:43:36;;;;;;;1999.90;999.90;;;25.40;99.90;;;;;;5048243;28;20523;-72
2023/09/16 11:46:03;;;;;;;1999.90;999.90;;;25.40;99.90;;;;;;5049661;28;20432;-73
2023/09/16 11:48:47;;;;;;;1999.90;999.90;;;25.50;99.90;;;;;;5047032;28;20437;-71
2023/09/16 11:51:13;;;;;;;1999.90;999.90;;;25.70;99.90;;;;;;5048967;28;20436;-72
2023/09/16 11:53:41;;;;;;;1999.90;999.90;;;25.80;99.90;;;;;;5049941;28;20436;-73
2023/09/16 11:56:08;;;;;;;1999.90;999.90;;;25.70;99.90;;;;;;5049961;28;20452;-73
2023/09/16 11:58:35;;;;;;;1999.90;999.90;;;26.00;99.90;;;;;;5047911;28;20440;-73
2023/09/16 12:01:03;;;;;;;1999.90;999.90;;;26.00;99.90;;;;;;5043530;28;20445;-73